aviador You're here:

KMLP Decoded Metar

MULLAN PASS in ID, USA
Report Time2018-02-22 05:53:00
UTC Time2018-02-22 06:42:15
Flight Rules vfr VFR
Wind160° at 05 kt
W.Rank160° ranks 13
Current wind is below 160° avg. (6.0)
Visibility9999 m
Phenomena:N/A
Clouds:Overcast 075 Hf
Expected CloudBase > 400 ft AGL from Temp-Dew spread
Ceiling7,500 ft
Temp-15°C (ISA -18)
Dew Point-16°C (92% RH)
AAT-20.2°C
QNH1011 hPa
Density Alt3,898 ft
Elevation6,027 ft
Report Wrong Elevation
Raw Report
KMLP 220553Z AUTO 16005KT 10SM OVC075 M15/M16 A2985 RMK AO2 SLP211
T11501161 11139 21150 56003 TSNO=

Extra information for KMLP:More info

Metar Taf Metar & Taf Last 4 Metars F.Rules Stats Wind Profile Meteogram Temp Stats Airport Information Weather charts Add Link Nearby VenuesMetar ALERT Operation Metar Decoded Social comments

AIRNAV info for KMLP